Time;durP1;ratioP1;P1;durP2;ratioP2;P2;SDS_P1;SDS_P2;PMS_P1;PMS_P2;Temp;Humidity;BMP_temperature;BMP_pressure;BME280_temperature;BME280_humidity;BME280_pressure;Samples;Min_cycle;Max_cycle;Signal;HPM_P1;HPM_P2
2021/01/05 00:01:28;;;;;;;1.70;0.20;;;3.30;99.90;;;;;;5091914;28;20179;-58
2021/01/05 00:03:53;;;;;;;1.70;0.20;;;3.30;99.90;;;;;;5094034;28;21001;-59
2021/01/05 00:06:19;;;;;;;2.73;2.10;;;3.30;99.90;;;;;;5104599;28;20737;-60
2021/01/05 00:08:44;;;;;;;7.40;4.20;;;3.40;99.90;;;;;;5102247;28;20183;-60
2021/01/05 00:11:10;;;;;;;2.00;0.73;;;3.40;99.90;;;;;;5092596;28;20238;-60
2021/01/05 00:13:36;;;;;;;1.80;0.50;;;3.40;99.90;;;;;;5106074;28;20216;-60
2021/01/05 00:16:01;;;;;;;1.90;0.40;;;3.30;99.90;;;;;;5102585;28;20661;-60
2021/01/05 00:18:27;;;;;;;1.70;0.20;;;3.30;99.90;;;;;;5092460;28;20212;-60
2021/01/05 00:20:52;;;;;;;1.70;0.20;;;3.30;99.90;;;;;;5103024;28;20543;-59
2021/01/05 00:23:18;;;;;;;1.97;0.83;;;3.30;99.90;;;;;;5105083;28;20215;-60
2021/01/05 00:25:43;;;;;;;1.80;0.30;;;3.30;99.90;;;;;;5101985;28;20200;-60
2021/01/05 00:28:10;;;;;;;5.50;5.00;;;3.20;99.90;;;;;;5119805;28;20195;-60
2021/01/05 00:30:36;;;;;;;1.70;0.20;;;3.20;99.90;;;;;;5106985;28;20187;-61
2021/01/05 00:33:01;;;;;;;1.70;0.20;;;3.20;99.90;;;;;;5108282;28;20200;-62
2021/01/05 00:35:33;;;;;;;2.90;1.30;;;3.20;99.90;;;;;;5114284;28;20167;-60
2021/01/05 00:37:58;;;;;;;1.80;0.30;;;3.20;99.90;;;;;;5107566;28;20183;-61
2021/01/05 00:40:26;;;;;;;2.00;1.07;;;3.10;99.90;;;;;;5110358;28;20183;-61
2021/01/05 00:42:54;;;;;;;1.77;0.30;;;3.10;99.90;;;;;;5102576;28;20196;-60
2021/01/05 00:45:34;;;;;;;1.70;0.20;;;3.10;99.90;;;;;;5096322;28;20184;-61
2021/01/05 00:48:00;;;;;;;1.80;0.20;;;3.10;99.90;;;;;;5091436;28;20185;-60
2021/01/05 00:50:26;;;;;;;1.70;0.20;;;3.10;99.90;;;;;;5101305;28;20172;-60
2021/01/05 00:52:52;;;;;;;1.80;0.30;;;3.20;99.90;;;;;;5091176;28;20302;-60
2021/01/05 00:55:18;;;;;;;1.70;0.20;;;3.20;99.90;;;;;;5091216;28;20211;-60
2021/01/05 00:57:44;;;;;;;1.80;0.45;;;3.20;99.90;;;;;;5104309;28;20188;-60
2021/01/05 01:00:14;;;;;;;1.70;0.20;;;3.20;99.90;;;;;;5092257;28;20224;-60
2021/01/05 01:02:39;;;;;;;1.83;0.47;;;3.20;99.90;;;;;;5099973;28;20264;-61
2021/01/05 01:05:06;;;;;;;1.97;0.60;;;3.30;99.90;;;;;;5100716;28;20184;-60
2021/01/05 01:07:31;;;;;;;1.90;0.60;;;3.30;99.90;;;;;;5089943;28;20189;-61
2021/01/05 01:09:57;;;;;;;1.70;0.20;;;3.20;99.90;;;;;;5101967;28;20199;-60
2021/01/05 01:12:24;;;;;;;1.70;0.20;;;3.20;99.90;;;;;;5111076;28;20697;-60
2021/01/05 01:14:53;;;;;;;5.40;0.93;;;3.20;99.90;;;;;;5092262;28;20227;-61
2021/01/05 01:17:20;;;;;;;1.70;0.20;;;3.30;99.90;;;;;;5101739;28;20189;-59
2021/01/05 01:19:46;;;;;;;1.80;0.30;;;3.30;99.90;;;;;;5091814;28;20219;-60
2021/01/05 01:22:11;;;;;;;1.70;0.30;;;3.30;99.90;;;;;;5089461;28;20233;-60
2021/01/05 01:24:37;;;;;;;1.80;0.40;;;3.30;99.90;;;;;;5099072;28;20586;-60
2021/01/05 01:27:03;;;;;;;3.70;1.60;;;3.20;99.90;;;;;;5097067;28;20437;-59
2021/01/05 01:29:29;;;;;;;1.73;0.27;;;3.20;99.90;;;;;;5095118;28;20192;-60
2021/01/05 01:31:56;;;;;;;1.70;0.20;;;3.20;99.90;;;;;;5110979;28;20196;-60
2021/01/05 01:34:24;;;;;;;1.70;0.20;;;3.20;99.90;;;;;;5092724;28;20238;-60
2021/01/05 01:36:54;;;;;;;1.80;0.43;;;3.20;99.90;;;;;;5102632;28;20520;-60
2021/01/05 01:39:20;;;;;;;4.82;1.30;;;3.20;99.90;;;;;;5111579;23;20215;-64
2021/01/05 01:41:46;;;;;;;1.77;0.40;;;3.20;99.90;;;;;;5083924;28;20185;-64
2021/01/05 01:44:23;;;;;;;1.90;0.70;;;3.20;99.90;;;;;;5093190;28;20576;-64
2021/01/05 01:46:52;;;;;;;1.70;0.20;;;3.10;99.90;;;;;;5104060;28;20179;-65
2021/01/05 01:49:18;;;;;;;1.73;0.20;;;3.10;99.90;;;;;;5090690;28;20195;-64
2021/01/05 01:51:44;;;;;;;5.60;2.37;;;3.10;99.90;;;;;;5095288;28;20236;-65
2021/01/05 01:54:35;;;;;;;1.70;0.20;;;3.10;99.90;;;;;;5093602;28;20217;-65
2021/01/05 01:57:32;;;;;;;4.07;2.55;;;3.20;99.90;;;;;;5084973;28;20210;-65
2021/01/05 02:00:20;;;;;;;1.73;0.20;;;3.20;99.90;;;;;;5083181;28;20209;-65
2021/01/05 02:02:57;;;;;;;1.90;0.43;;;3.20;99.90;;;;;;5099804;28;20588;-65
2021/01/05 02:05:58;;;;;;;3.35;3.05;;;3.20;99.90;;;;;;5095163;28;20183;-64
2021/01/05 02:08:45;;;;;;;2.40;1.33;;;3.20;99.90;;;;;;5094430;28;20637;-65
2021/01/05 02:11:29;;;;;;;2.33;1.98;;;3.20;99.90;;;;;;5084461;28;20309;-65
2021/01/05 02:14:22;;;;;;;7.15;1.20;;;3.20;99.90;;;;;;5098361;28;20573;-65
2021/01/05 02:16:56;;;;;;;4.18;1.55;;;3.20;99.90;;;;;;5099387;28;20172;-65
2021/01/05 02:19:45;;;;;;;2.88;1.02;;;3.20;99.90;;;;;;5089956;28;20198;-64
2021/01/05 02:22:17;;;;;;;1.73;0.20;;;3.20;99.90;;;;;;5096234;28;20190;-65
2021/01/05 02:25:10;;;;;;;4.10;1.48;;;3.20;99.90;;;;;;5098544;28;20176;-64
2021/01/05 02:27:44;;;;;;;1.73;0.20;;;3.30;99.90;;;;;;5095846;28;20258;-64
2021/01/05 02:30:15;;;;;;;1.70;0.20;;;3.30;99.90;;;;;;5090732;28;20208;-65
2021/01/05 02:32:51;;;;;;;1.70;0.20;;;3.30;99.90;;;;;;5086357;28;20287;-65
2021/01/05 02:35:39;;;;;;;2.80;1.33;;;3.40;99.90;;;;;;5095512;28;20245;-65
2021/01/05 02:38:27;;;;;;;1.70;0.20;;;3.30;99.90;;;;;;5087992;28;20184;-64
2021/01/05 02:41:13;;;;;;;1.70;0.20;;;3.40;99.90;;;;;;5093156;28;20608;-65
2021/01/05 02:44:01;;;;;;;1.70;0.20;;;3.30;99.90;;;;;;5096675;28;20196;-65
2021/01/05 02:46:52;;;;;;;1.90;0.43;;;3.30;99.90;;;;;;5095082;28;20221;-65
2021/01/05 02:49:32;;;;;;;2.42;0.95;;;3.30;99.90;;;;;;5090151;28;20294;-65
2021/01/05 02:52:45;;;;;;;1.70;0.20;;;3.20;99.90;;;;;;5093165;28;20620;-65
2021/01/05 02:55:48;;;;;;;1.73;0.20;;;3.30;99.90;;;;;;5101089;28;20183;-64
2021/01/05 02:58:43;;;;;;;5.93;3.03;;;3.40;99.90;;;;;;5089416;28;20179;-65
2021/01/05 03:01:30;;;;;;;1.73;0.20;;;3.40;99.90;;;;;;5088945;28;20216;-64
2021/01/05 03:03:56;;;;;;;1.73;0.40;;;3.30;99.90;;;;;;5092932;28;20192;-64
2021/01/05 03:06:39;;;;;;;1.70;0.20;;;3.40;99.90;;;;;;5103399;28;20192;-64
2021/01/05 03:09:33;;;;;;;1.70;0.20;;;3.30;99.90;;;;;;5087914;28;20721;-65
2021/01/05 03:12:23;;;;;;;3.92;2.40;;;3.30;99.90;;;;;;5086199;28;20646;-65
2021/01/05 03:15:05;;;;;;;5.15;2.60;;;3.20;99.90;;;;;;5095604;28;20192;-64
2021/01/05 03:17:36;;;;;;;1.70;0.20;;;3.20;99.90;;;;;;5101524;28;20168;-64
2021/01/05 03:20:13;;;;;;;4.72;2.40;;;3.10;99.90;;;;;;5087844;28;20283;-64
2021/01/05 03:22:48;;;;;;;1.70;0.20;;;3.20;99.90;;;;;;5088748;28;20286;-65
2021/01/05 03:25:15;;;;;;;1.70;0.20;;;3.20;99.90;;;;;;5096055;28;20239;-65
2021/01/05 03:27:41;;;;;;;2.15;1.05;;;3.20;99.90;;;;;;5091301;28;20267;-64
2021/01/05 03:30:13;;;;;;;5.63;4.10;;;3.20;99.90;;;;;;5094792;28;20282;-64
2021/01/05 03:32:39;;;;;;;5.03;1.73;;;3.30;99.90;;;;;;5092130;28;20615;-65
2021/01/05 03:35:05;;;;;;;1.70;0.20;;;3.30;99.90;;;;;;5088438;28;20191;-65
2021/01/05 03:37:30;;;;;;;1.80;0.50;;;3.30;99.90;;;;;;5090415;28;20180;-64
2021/01/05 03:39:56;;;;;;;2.10;0.60;;;3.30;99.90;;;;;;5106140;28;20252;-65
2021/01/05 03:42:21;;;;;;;2.57;0.87;;;3.30;99.90;;;;;;5087909;28;20180;-65
2021/01/05 03:44:47;;;;;;;2.13;1.43;;;3.30;99.90;;;;;;5094465;28;20188;-65
2021/01/05 03:47:12;;;;;;;2.00;0.90;;;3.30;99.90;;;;;;5082496;28;20180;-65
2021/01/05 03:49:38;;;;;;;1.70;0.20;;;3.30;99.90;;;;;;5086318;28;20233;-65
2021/01/05 03:52:03;;;;;;;2.63;0.97;;;3.30;99.90;;;;;;5091177;28;20199;-65
2021/01/05 03:54:29;;;;;;;1.80;0.20;;;3.30;99.90;;;;;;5103865;28;20182;-65
2021/01/05 03:56:54;;;;;;;3.83;2.20;;;3.30;99.90;;;;;;5092368;28;20183;-65
2021/01/05 03:59:20;;;;;;;1.70;0.20;;;3.30;99.90;;;;;;5100295;28;20244;-65
2021/01/05 04:01:52;;;;;;;2.57;0.97;;;3.30;99.90;;;;;;5091258;28;20192;-64
2021/01/05 04:04:18;;;;;;;6.30;3.88;;;3.30;99.90;;;;;;5087829;28;20680;-65
2021/01/05 04:06:44;;;;;;;2.00;1.13;;;3.30;99.90;;;;;;5092954;28;20188;-65
2021/01/05 04:09:09;;;;;;;4.40;1.73;;;3.30;99.90;;;;;;5096745;28;20473;-65
2021/01/05 04:11:35;;;;;;;1.70;0.20;;;3.30;99.90;;;;;;5085988;28;20188;-65
2021/01/05 04:14:00;;;;;;;2.17;0.87;;;3.30;99.90;;;;;;5095617;28;20212;-64
2021/01/05 04:16:26;;;;;;;1.70;0.20;;;3.30;99.90;;;;;;5084272;28;20190;-65
2021/01/05 04:18:51;;;;;;;3.70;2.10;;;3.20;99.90;;;;;;5093033;28;20646;-65
2021/01/05 04:21:17;;;;;;;1.73;0.30;;;3.30;99.90;;;;;;5094823;28;20262;-65
2021/01/05 04:23:42;;;;;;;1.70;0.20;;;3.30;99.90;;;;;;5087083;28;20188;-64
2021/01/05 04:26:09;;;;;;;1.70;0.20;;;3.30;99.90;;;;;;5097109;28;20190;-64
2021/01/05 04:28:34;;;;;;;2.22;0.82;;;3.30;99.90;;;;;;5100680;28;20196;-65
2021/01/05 04:31:00;;;;;;;1.80;0.50;;;3.20;99.90;;;;;;5088591;28;20223;-65
2021/01/05 04:33:25;;;;;;;1.90;0.83;;;3.30;99.90;;;;;;5096179;28;20206;-65
2021/01/05 04:35:51;;;;;;;2.37;0.70;;;3.30;99.90;;;;;;5101513;28;20191;-65
2021/01/05 04:38:16;;;;;;;5.00;2.10;;;3.30;99.90;;;;;;5093024;28;20225;-65
2021/01/05 04:40:46;;;;;;;1.70;0.20;;;3.30;99.90;;;;;;5081607;28;20200;-65
2021/01/05 04:43:21;;;;;;;2.55;0.82;;;3.30;99.90;;;;;;5099506;28;20195;-65
2021/01/05 04:46:04;;;;;;;1.70;0.20;;;3.30;99.90;;;;;;5092164;28;20179;-64
2021/01/05 04:48:38;;;;;;;1.75;0.20;;;3.40;99.90;;;;;;5102847;28;20255;-65
2021/01/05 04:51:12;;;;;;;1.70;0.20;;;3.40;99.90;;;;;;5075441;28;20224;-65
2021/01/05 04:53:46;;;;;;;2.88;1.55;;;3.40;99.90;;;;;;5085256;28;20207;-65
2021/01/05 04:56:13;;;;;;;3.75;1.85;;;3.40;99.90;;;;;;5092333;28;20180;-64
2021/01/05 04:58:54;;;;;;;1.77;0.30;;;3.30;99.90;;;;;;5102883;28;20187;-65
2021/01/05 05:01:26;;;;;;;1.75;0.30;;;3.20;99.90;;;;;;5089880;28;20179;-64
2021/01/05 05:04:01;;;;;;;1.75;0.25;;;3.30;99.90;;;;;;5097959;28;20188;-64
2021/01/05 05:06:39;;;;;;;1.73;0.20;;;3.30;99.90;;;;;;5097721;28;20178;-65
2021/01/05 05:09:23;;;;;;;1.70;0.20;;;3.30;99.90;;;;;;5084330;28;20179;-65
2021/01/05 05:12:30;;;;;;;2.45;0.60;;;3.30;99.90;;;;;;5094035;28;20208;-65
2021/01/05 05:15:24;;;;;;;2.40;1.50;;;3.30;99.90;;;;;;5100941;28;20203;-65
2021/01/05 05:17:59;;;;;;;3.00;1.25;;;3.30;99.90;;;;;;5099413;28;20543;-65
2021/01/05 05:20:56;;;;;;;6.60;3.88;;;3.20;99.90;;;;;;5087463;28;20203;-65
2021/01/05 05:24:01;;;;;;;4.55;0.50;;;3.20;99.90;;;;;;5093220;28;20180;-64
2021/01/05 05:26:37;;;;;;;1.70;0.30;;;3.30;99.90;;;;;;5087370;28;20208;-64
2021/01/05 05:29:09;;;;;;;1.70;0.20;;;3.30;99.90;;;;;;5096695;28;20982;-64
2021/01/05 05:31:35;;;;;;;1.80;0.40;;;3.30;99.90;;;;;;5092471;28;20190;-64
2021/01/05 05:34:07;;;;;;;2.00;0.77;;;3.30;99.90;;;;;;5093071;28;20547;-64
2021/01/05 05:36:46;;;;;;;2.00;1.17;;;3.30;99.90;;;;;;5104143;28;20637;-65
2021/01/05 05:39:30;;;;;;;1.80;0.30;;;3.30;99.90;;;;;;5072182;28;20203;-64
2021/01/05 05:42:07;;;;;;;4.38;2.25;;;3.30;99.90;;;;;;5096044;28;20180;-64
2021/01/05 05:45:05;;;;;;;2.13;1.05;;;3.30;99.90;;;;;;5088994;28;20176;-64
2021/01/05 05:48:06;;;;;;;2.80;0.93;;;3.40;99.90;;;;;;5099751;28;20194;-64
2021/01/05 05:50:37;;;;;;;3.67;2.60;;;3.40;99.90;;;;;;5042212;28;20210;-64
2021/01/05 05:53:10;;;;;;;1.75;0.20;;;3.30;99.90;;;;;;5096282;28;20211;-64
2021/01/05 05:55:48;;;;;;;2.78;0.80;;;3.30;99.90;;;;;;5085554;28;20176;-64
2021/01/05 05:58:19;;;;;;;1.70;0.20;;;3.30;99.90;;;;;;5096293;28;20183;-64
2021/01/05 06:00:48;;;;;;;1.70;0.20;;;3.30;99.90;;;;;;5088544;28;20276;-65
2021/01/05 06:03:16;;;;;;;1.70;0.20;;;3.30;99.90;;;;;;5111774;28;20174;-64
2021/01/05 06:05:43;;;;;;;1.70;0.20;;;3.30;99.90;;;;;;5089800;28;20281;-64
2021/01/05 06:08:10;;;;;;;1.90;0.65;;;3.30;99.90;;;;;;5100776;28;20204;-64
2021/01/05 06:10:36;;;;;;;1.80;0.43;;;3.40;99.90;;;;;;5090218;28;20690;-64
2021/01/05 06:13:01;;;;;;;2.03;0.97;;;3.30;99.90;;;;;;5095492;28;20221;-64
2021/01/05 06:15:27;;;;;;;2.47;1.20;;;3.40;99.90;;;;;;5098739;28;20179;-64
2021/01/05 06:17:52;;;;;;;1.90;0.50;;;3.30;99.90;;;;;;5095212;28;20271;-64
2021/01/05 06:20:18;;;;;;;1.93;0.83;;;3.20;99.90;;;;;;5087829;28;20225;-65
2021/01/05 06:22:45;;;;;;;4.30;2.47;;;3.20;99.90;;;;;;5094235;28;20192;-64
2021/01/05 06:25:13;;;;;;;1.70;0.20;;;3.20;99.90;;;;;;5096899;28;20490;-64
2021/01/05 06:27:38;;;;;;;1.70;0.20;;;3.20;99.90;;;;;;5089105;28;20551;-64
2021/01/05 06:30:05;;;;;;;1.70;0.20;;;3.20;99.90;;;;;;5092219;28;20200;-64
2021/01/05 06:32:31;;;;;;;1.90;0.70;;;3.20;99.90;;;;;;5092491;28;20212;-65
2021/01/05 06:34:56;;;;;;;1.70;0.20;;;3.20;99.90;;;;;;5089592;28;20225;-64
2021/01/05 06:37:22;;;;;;;2.10;0.50;;;3.30;99.90;;;;;;5100576;28;20234;-64
2021/01/05 06:39:47;;;;;;;2.73;1.07;;;3.30;99.90;;;;;;5093771;28;20241;-64
2021/01/05 06:42:15;;;;;;;3.97;0.57;;;3.20;99.90;;;;;;5095521;28;20199;-64
2021/01/05 06:44:42;;;;;;;3.03;1.42;;;3.20;99.90;;;;;;5101304;28;20184;-64
2021/01/05 06:47:08;;;;;;;1.70;0.20;;;3.20;99.90;;;;;;5091946;28;20209;-64
2021/01/05 06:49:33;;;;;;;1.90;0.60;;;3.10;99.90;;;;;;5090000;28;20196;-64
2021/01/05 06:51:59;;;;;;;1.70;0.20;;;3.20;99.90;;;;;;5105141;28;20175;-64
2021/01/05 06:54:25;;;;;;;3.75;2.38;;;3.20;99.90;;;;;;5060982;28;20199;-64
2021/01/05 06:56:55;;;;;;;1.70;0.20;;;3.20;99.90;;;;;;5088109;28;20238;-64
2021/01/05 06:59:21;;;;;;;2.13;0.98;;;3.20;99.90;;;;;;5094233;28;20203;-64
2021/01/05 07:02:05;;;;;;;1.80;0.40;;;3.20;99.90;;;;;;5090611;28;20813;-65
2021/01/05 07:04:30;;;;;;;1.70;0.20;;;3.20;99.90;;;;;;5100653;28;20202;-64
2021/01/05 07:06:57;;;;;;;1.70;0.20;;;3.20;99.90;;;;;;5080465;28;20277;-64
2021/01/05 07:09:23;;;;;;;1.77;0.30;;;3.20;99.90;;;;;;5084132;28;20204;-65
2021/01/05 07:11:49;;;;;;;2.03;0.82;;;3.20;99.90;;;;;;5098648;28;20188;-65
2021/01/05 07:14:17;;;;;;;1.70;0.20;;;3.20;99.90;;;;;;5092799;28;20673;-65
2021/01/05 07:16:42;;;;;;;2.05;0.63;;;3.10;99.90;;;;;;5085383;28;20185;-66
2021/01/05 07:19:08;;;;;;;1.70;0.20;;;3.10;99.90;;;;;;5093274;28;20259;-66
2021/01/05 07:21:34;;;;;;;2.70;1.43;;;3.10;99.90;;;;;;5092102;28;20577;-65
2021/01/05 07:24:01;;;;;;;1.80;0.50;;;3.10;99.90;;;;;;5086746;28;20238;-64
2021/01/05 07:26:26;;;;;;;1.90;0.63;;;3.10;99.90;;;;;;5105105;28;20181;-65
2021/01/05 07:28:52;;;;;;;1.90;0.50;;;3.10;99.90;;;;;;5066001;28;20325;-65
2021/01/05 07:31:18;;;;;;;3.03;1.83;;;3.10;99.90;;;;;;5089833;28;20215;-64
2021/01/05 07:33:43;;;;;;;1.87;0.57;;;3.20;99.90;;;;;;5094719;28;20279;-65
2021/01/05 07:36:27;;;;;;;1.80;0.30;;;3.20;99.90;;;;;;5087467;28;20439;-64
2021/01/05 07:38:53;;;;;;;1.95;0.75;;;3.20;99.90;;;;;;5088323;28;20259;-64
2021/01/05 07:41:19;;;;;;;1.70;0.20;;;3.20;99.90;;;;;;5091193;28;20293;-64
2021/01/05 07:43:46;;;;;;;4.47;2.50;;;3.20;99.90;;;;;;5089379;28;20208;-64
2021/01/05 07:46:11;;;;;;;2.42;0.77;;;3.20;99.90;;;;;;5093056;28;20274;-64
2021/01/05 07:48:37;;;;;;;1.70;0.40;;;3.20;99.90;;;;;;5087071;28;20215;-64
2021/01/05 07:51:05;;;;;;;5.63;1.70;;;3.20;99.90;;;;;;5089118;28;20207;-64
2021/01/05 07:53:31;;;;;;;1.80;0.20;;;3.20;99.90;;;;;;5092621;28;20211;-64
2021/01/05 07:55:56;;;;;;;1.90;0.85;;;3.20;99.90;;;;;;5091762;28;20182;-65
2021/01/05 08:00:59;;;;;;;1.73;0.20;;;3.30;99.90;;;;;;5080162;28;20205;-59
2021/01/05 08:03:25;;;;;;;1.70;0.20;;;3.30;99.90;;;;;;5086255;28;20266;-60
2021/01/05 08:05:50;;;;;;;3.00;0.70;;;3.30;99.90;;;;;;5087958;28;20184;-59
2021/01/05 08:08:16;;;;;;;1.70;0.20;;;3.30;99.90;;;;;;5086389;28;20202;-58
2021/01/05 08:10:42;;;;;;;1.90;0.60;;;3.30;99.90;;;;;;5090240;28;20239;-58
2021/01/05 08:13:09;;;;;;;2.27;0.83;;;3.30;99.90;;;;;;5091662;28;20755;-58
2021/01/05 08:15:35;;;;;;;1.90;0.52;;;3.30;99.90;;;;;;5092978;28;20184;-58
2021/01/05 08:18:02;;;;;;;1.70;0.20;;;3.30;99.90;;;;;;5090776;28;20240;-59
2021/01/05 08:20:30;;;;;;;1.70;0.20;;;3.20;99.90;;;;;;5089424;28;20460;-59
2021/01/05 08:22:57;;;;;;;1.70;0.20;;;3.30;99.90;;;;;;5090792;28;20180;-59
2021/01/05 08:25:23;;;;;;;1.70;0.20;;;3.20;99.90;;;;;;5092440;28;20649;-58
2021/01/05 08:27:51;;;;;;;1.85;0.45;;;3.20;99.90;;;;;;5090110;28;20181;-58
2021/01/05 08:30:27;;;;;;;2.00;0.38;;;3.20;99.90;;;;;;5101697;28;20215;-58
2021/01/05 08:32:54;;;;;;;1.70;0.20;;;3.30;99.90;;;;;;5074338;28;20218;-58
2021/01/05 08:35:23;;;;;;;5.50;2.15;;;3.30;99.90;;;;;;5091535;28;20180;-59
2021/01/05 08:37:50;;;;;;;12.02;2.65;;;3.40;99.90;;;;;;5087852;28;21037;-59
2021/01/05 08:40:27;;;;;;;7.20;5.00;;;3.30;99.90;;;;;;5098454;28;20273;-59
2021/01/05 08:42:57;;;;;;;1.90;0.52;;;3.40;99.90;;;;;;5099721;28;20544;-58
2021/01/05 08:45:23;;;;;;;1.70;0.20;;;3.40;99.90;;;;;;5111203;28;20199;-59
2021/01/05 08:47:49;;;;;;;2.10;1.13;;;3.50;99.90;;;;;;5090653;28;20180;-59
2021/01/05 08:50:21;;;;;;;1.70;0.20;;;3.50;99.90;;;;;;5102169;28;20204;-59
2021/01/05 08:52:46;;;;;;;66.65;37.97;;;3.40;99.90;;;;;;5111967;28;20458;-57
2021/01/05 08:55:14;;;;;;;2.63;1.03;;;3.40;99.90;;;;;;5104619;28;20551;-58
2021/01/05 08:57:39;;;;;;;3.85;2.13;;;3.40;99.90;;;;;;5101655;28;20191;-59
2021/01/05 09:00:06;;;;;;;2.57;0.93;;;3.50;99.90;;;;;;5104282;28;20219;-59
2021/01/05 09:02:32;;;;;;;1.80;0.40;;;3.50;99.90;;;;;;5100673;28;20223;-66
2021/01/05 09:04:57;;;;;;;3.30;1.80;;;3.50;99.90;;;;;;5092352;28;20199;-59
2021/01/05 09:07:23;;;;;;;2.53;0.77;;;3.40;99.90;;;;;;5095406;28;20205;-62
2021/01/05 09:09:48;;;;;;;4.27;1.63;;;3.50;99.90;;;;;;5091865;28;20207;-58
2021/01/05 09:12:14;;;;;;;1.70;0.30;;;3.50;99.90;;;;;;5096146;28;20195;-58
2021/01/05 09:14:40;;;;;;;2.50;1.67;;;3.50;99.90;;;;;;5092029;28;20713;-59
2021/01/05 09:17:06;;;;;;;4.27;2.00;;;3.50;99.90;;;;;;5086852;28;20177;-58
2021/01/05 09:19:32;;;;;;;5.80;3.30;;;3.40;99.90;;;;;;5101512;28;20199;-58
2021/01/05 09:21:57;;;;;;;3.03;1.20;;;3.40;99.90;;;;;;5092875;28;20526;-58
2021/01/05 09:24:23;;;;;;;1.70;0.20;;;3.40;99.90;;;;;;5089819;28;20200;-57
2021/01/05 09:26:54;;;;;;;1.90;0.60;;;3.50;99.90;;;;;;5094260;28;20192;-58
2021/01/05 09:29:22;;;;;;;9.13;4.18;;;3.50;99.90;;;;;;5090496;28;20207;-58
2021/01/05 09:31:48;;;;;;;1.73;0.20;;;3.50;99.90;;;;;;5097565;28;20195;-58
2021/01/05 09:34:17;;;;;;;2.53;1.25;;;3.50;99.90;;;;;;5093732;28;20330;-60
2021/01/05 09:36:42;;;;;;;6.78;3.22;;;3.50;99.90;;;;;;5088888;28;20583;-58
2021/01/05 09:39:10;;;;;;;1.90;0.40;;;3.50;99.90;;;;;;5091224;28;20260;-58
2021/01/05 09:41:39;;;;;;;9.32;4.65;;;3.50;99.90;;;;;;5093137;28;20216;-58
2021/01/05 09:44:05;;;;;;;7.43;3.38;;;3.50;99.90;;;;;;5084467;28;20207;-58
2021/01/05 09:46:31;;;;;;;1.70;0.20;;;3.50;99.90;;;;;;5090300;28;20229;-58
2021/01/05 09:48:56;;;;;;;2.87;0.77;;;3.50;99.90;;;;;;5089998;28;20208;-59
2021/01/05 09:51:28;;;;;;;2.33;1.27;;;3.40;99.90;;;;;;5086315;28;20715;-58
2021/01/05 09:53:53;;;;;;;2.80;1.30;;;3.50;99.90;;;;;;5094364;28;20678;-58
2021/01/05 09:56:19;;;;;;;3.37;1.97;;;3.60;99.90;;;;;;5091153;28;20309;-58
2021/01/05 09:58:45;;;;;;;1.70;0.20;;;3.60;99.90;;;;;;5091353;28;20267;-59
2021/01/05 10:01:12;;;;;;;2.95;1.55;;;3.70;99.90;;;;;;5095501;28;20251;-59
2021/01/05 10:03:38;;;;;;;11.73;2.47;;;3.70;99.90;;;;;;5091472;28;20191;-59
2021/01/05 10:06:04;;;;;;;6.40;3.17;;;3.70;99.90;;;;;;5089537;28;20222;-58
2021/01/05 10:08:30;;;;;;;4.35;1.52;;;3.70;99.90;;;;;;5084023;28;20445;-58
2021/01/05 10:10:56;;;;;;;1.73;0.27;;;3.70;99.90;;;;;;5102631;28;20194;-59
2021/01/05 10:13:21;;;;;;;3.00;0.53;;;3.70;99.90;;;;;;5092900;28;20234;-58
2021/01/05 10:15:47;;;;;;;1.70;0.20;;;3.80;99.90;;;;;;5096175;28;20449;-58
2021/01/05 10:18:13;;;;;;;8.50;5.37;;;3.80;99.90;;;;;;5088081;28;20243;-58
2021/01/05 10:20:38;;;;;;;3.93;2.33;;;3.70;99.90;;;;;;5096460;28;20453;-58
2021/01/05 10:23:04;;;;;;;3.00;1.57;;;3.70;99.90;;;;;;5083771;28;20239;-59
2021/01/05 10:25:29;;;;;;;5.53;4.90;;;3.70;99.90;;;;;;5088529;28;20184;-58
2021/01/05 10:27:55;;;;;;;2.07;1.33;;;3.70;99.90;;;;;;5095338;28;20179;-59
2021/01/05 10:30:21;;;;;;;10.23;5.90;;;3.80;99.90;;;;;;5090809;28;20200;-58
2021/01/05 10:32:47;;;;;;;2.00;1.03;;;3.70;99.90;;;;;;5088451;28;20215;-58
2021/01/05 10:35:15;;;;;;;1.70;0.20;;;3.70;99.90;;;;;;5080825;28;20956;-59
2021/01/05 10:37:41;;;;;;;2.00;0.75;;;3.80;99.90;;;;;;5086959;28;20184;-59
2021/01/05 10:40:07;;;;;;;4.03;2.20;;;3.90;99.90;;;;;;5085093;28;20700;-59
2021/01/05 10:42:33;;;;;;;4.30;2.05;;;3.90;99.90;;;;;;5088428;28;20204;-59
2021/01/05 10:44:59;;;;;;;1.70;0.20;;;3.90;99.90;;;;;;5090030;28;20204;-58
2021/01/05 10:47:24;;;;;;;1.80;0.30;;;3.90;99.90;;;;;;5087417;28;20214;-59
2021/01/05 10:49:50;;;;;;;5.77;4.20;;;3.90;99.90;;;;;;5090318;28;20264;-59
2021/01/05 10:52:17;;;;;;;2.07;0.40;;;3.90;99.90;;;;;;5093757;28;20209;-59
2021/01/05 10:54:43;;;;;;;9.50;3.75;;;3.90;99.90;;;;;;5087643;28;20189;-59
2021/01/05 10:57:10;;;;;;;2.67;0.65;;;4.00;99.90;;;;;;5090084;28;20187;-58
2021/01/05 10:59:39;;;;;;;1.70;0.20;;;4.00;99.90;;;;;;5086875;28;20219;-59
2021/01/05 11:02:05;;;;;;;1.70;0.20;;;4.00;99.90;;;;;;5095446;28;20176;-59
2021/01/05 11:04:31;;;;;;;3.45;1.70;;;4.00;99.90;;;;;;5107786;28;20207;-59
2021/01/05 11:07:00;;;;;;;1.70;0.20;;;4.00;99.90;;;;;;5090691;28;20196;-63
2021/01/05 11:09:27;;;;;;;1.80;0.20;;;4.00;99.90;;;;;;5089715;28;20204;-59
2021/01/05 11:12:04;;;;;;;1.80;0.35;;;4.00;99.90;;;;;;5084475;28;20180;-60
2021/01/05 11:14:30;;;;;;;6.88;0.93;;;4.10;99.90;;;;;;5084131;28;20207;-59
2021/01/05 11:16:56;;;;;;;5.20;3.67;;;4.10;99.90;;;;;;5090416;28;20200;-59
2021/01/05 11:19:22;;;;;;;1.80;0.30;;;4.10;99.90;;;;;;5096081;28;20199;-59
2021/01/05 11:21:59;;;;;;;7.15;4.47;;;4.00;99.90;;;;;;5088135;28;20543;-60
2021/01/05 11:24:26;;;;;;;1.75;0.30;;;4.00;99.90;;;;;;5092603;28;20192;-60
2021/01/05 11:26:53;;;;;;;1.77;0.30;;;4.00;99.90;;;;;;5086062;28;20203;-59
2021/01/05 11:29:19;;;;;;;2.38;0.88;;;4.00;99.90;;;;;;5088145;28;20206;-60
2021/01/05 11:31:52;;;;;;;2.00;0.85;;;4.10;99.90;;;;;;5089150;28;20197;-60
2021/01/05 11:34:17;;;;;;;1.70;0.20;;;4.10;99.90;;;;;;5087916;28;20203;-60
2021/01/05 11:36:43;;;;;;;2.73;1.00;;;4.20;99.90;;;;;;5086004;28;20187;-60
2021/01/05 11:39:08;;;;;;;1.70;0.20;;;4.20;99.90;;;;;;5091297;28;20207;-60
2021/01/05 11:41:36;;;;;;;1.90;0.50;;;4.20;99.90;;;;;;5087234;28;20254;-60
2021/01/05 11:44:02;;;;;;;2.35;0.55;;;4.20;99.90;;;;;;5087812;28;20283;-60
2021/01/05 11:46:28;;;;;;;4.28;1.40;;;4.00;99.90;;;;;;5088250;28;20263;-60
2021/01/05 11:48:55;;;;;;;4.47;2.73;;;4.00;99.90;;;;;;5088662;28;20632;-59
2021/01/05 11:51:30;;;;;;;1.80;0.30;;;4.00;99.90;;;;;;5082256;28;20176;-59
2021/01/05 11:53:56;;;;;;;2.17;1.30;;;4.10;99.90;;;;;;5089651;28;20191;-58
2021/01/05 11:56:30;;;;;;;4.75;3.95;;;4.00;99.90;;;;;;5085415;28;20181;-59
2021/01/05 11:58:56;;;;;;;1.80;0.40;;;4.10;99.90;;;;;;5084699;28;20195;-59
2021/01/05 12:01:23;;;;;;;1.75;0.20;;;4.10;99.90;;;;;;5085794;28;20697;-60
2021/01/05 12:03:49;;;;;;;8.55;7.72;;;4.10;99.90;;;;;;5082673;28;20261;-60
2021/01/05 12:06:18;;;;;;;1.75;0.30;;;4.10;99.90;;;;;;5088398;28;20261;-60
2021/01/05 12:08:44;;;;;;;5.50;3.30;;;4.10;99.90;;;;;;5086429;28;20554;-61
2021/01/05 12:11:16;;;;;;;1.70;0.20;;;4.20;99.90;;;;;;5084371;28;20186;-60
2021/01/05 12:13:42;;;;;;;1.70;0.20;;;4.20;99.90;;;;;;5090168;28;20856;-60
2021/01/05 12:16:07;;;;;;;2.87;1.13;;;4.20;99.90;;;;;;5084260;28;20183;-59
2021/01/05 12:18:32;;;;;;;1.70;0.20;;;4.20;99.90;;;;;;5084221;28;20270;-60
2021/01/05 12:20:58;;;;;;;1.70;0.20;;;4.30;99.90;;;;;;5089337;28;20210;-60
2021/01/05 12:23:23;;;;;;;2.80;0.97;;;4.30;99.90;;;;;;5088151;28;20365;-59
2021/01/05 12:25:49;;;;;;;1.70;0.20;;;4.30;99.90;;;;;;5087268;28;20191;-60
2021/01/05 12:28:15;;;;;;;1.70;0.20;;;4.30;99.90;;;;;;5091395;28;20263;-60
2021/01/05 12:30:41;;;;;;;2.87;1.00;;;4.30;99.90;;;;;;5081807;28;20516;-60
2021/01/05 12:33:08;;;;;;;1.70;0.20;;;4.40;99.90;;;;;;5085847;28;20223;-60
2021/01/05 12:35:34;;;;;;;4.95;2.72;;;4.30;99.90;;;;;;5084604;28;20482;-60
2021/01/05 12:37:59;;;;;;;1.70;0.20;;;4.20;99.90;;;;;;5089254;28;20257;-60
2021/01/05 12:40:25;;;;;;;2.57;1.33;;;4.20;99.90;;;;;;5085311;28;20257;-59
2021/01/05 12:42:50;;;;;;;1.70;0.20;;;4.30;99.90;;;;;;5091701;28;20611;-60
2021/01/05 12:45:16;;;;;;;3.20;0.73;;;4.40;99.90;;;;;;5086109;28;20603;-60
2021/01/05 12:47:41;;;;;;;2.00;0.40;;;4.30;99.90;;;;;;5089143;28;20184;-60
2021/01/05 12:50:08;;;;;;;5.60;2.60;;;4.40;99.90;;;;;;5084953;28;20315;-60
2021/01/05 12:52:35;;;;;;;1.70;0.20;;;4.40;99.90;;;;;;5086819;28;20210;-60
2021/01/05 12:55:01;;;;;;;2.10;1.35;;;4.40;99.90;;;;;;5094837;28;20182;-60
2021/01/05 12:57:27;;;;;;;2.20;1.03;;;4.40;99.90;;;;;;5093986;28;20267;-59
2021/01/05 12:59:53;;;;;;;3.27;1.73;;;4.40;99.90;;;;;;5088683;28;20462;-60
2021/01/05 13:02:21;;;;;;;1.70;0.20;;;4.30;99.90;;;;;;5094866;28;20438;-60
2021/01/05 13:04:47;;;;;;;3.60;1.75;;;4.40;99.90;;;;;;5088573;28;20285;-58
2021/01/05 13:07:20;;;;;;;1.90;0.30;;;4.40;99.90;;;;;;5087311;28;20181;-60
2021/01/05 13:09:51;;;;;;;1.70;0.30;;;4.40;99.90;;;;;;5092335;28;20709;-59
2021/01/05 13:12:16;;;;;;;2.83;1.55;;;4.40;99.90;;;;;;5092379;28;20647;-60
2021/01/05 13:14:42;;;;;;;1.70;0.20;;;4.50;99.90;;;;;;5089041;28;20227;-59